Tiempo atmosférico en la estación meteorológica de Tudela Ii, Navarra (300 m.)



Fecha
DESCASC
Temp. máxima en grados centígrados (hora)
DESCASC
Temp. mínima en grados centígrados (hora)
DESCASC
Temp. media en grados centígrados
DESCASC
Racha de viento máxima en m/sg (hora)
DESCASC
Velocidad máxima media en intervalos de 10 minutos(hora)
DESCASC
Precipitaciones diarias en mm
DESCASC
Precipitaciones de 00:00 a 06:00 en mm
DESCASC
Precipitaciones de 06:00 a 12:00 en mm
DESCASC
Precipitaciones de 12:00 a 18:00 en mm
DESCASC
Precipitaciones de 18:00 a 24:00 en mm
DESCASC

Gráficas

Temp. máximas Temp. mínimas Temp. medias Precipitaciones Rachas de viento máximas Velocidades máximas media en intervalos de 10 minutos

Datos horarios

Fecha y hora oficial Temperatura (ºC) Velocidad del viento (km/h) Dirección del viento Racha (km/h) Dirección de racha Precipitación (mm) Presión (hPa) Tendencia (hPa) Humedad (%)
2019-09-18 23:00:00 20.9 5 Noroeste 17 Noroeste 0 -- -- 75
2019-09-18 22:00:00 21.5 6 Oeste 21 Norte 0 -- -- 71
2019-09-18 21:00:00 22.4 9 Norte 25 Noroeste 0 -- -- 66
2019-09-18 20:00:00 23.4 8 Noroeste 19 Noroeste 0 -- -- 62
2019-09-18 19:00:00 22.4 10 Oeste 31 Noroeste -- -- -- 64
2019-09-18 18:00:00 25.9 11 Oeste 28 Oeste 0 -- -- 50
2019-09-18 17:00:00 27.5 6 Nordeste 12 Este 0 -- -- 47
2019-09-18 16:00:00 26.3 4 Sudeste 9 Sur 0 -- -- 53
2019-09-18 15:00:00 25.4 4 Oeste 9 Oeste 0 -- -- 57
2019-09-18 14:00:00 25.2 3 Sudoeste 10 Este 0 -- -- 60
2019-09-18 13:00:00 24.9 3 Este 16 Nordeste 0 -- -- 62
2019-09-18 12:00:00 23.6 8 Norte 20 Noroeste 0 -- -- 64
2019-09-18 11:00:00 22.8 8 Noroeste 16 Noroeste 0 -- -- 64
2019-09-18 10:00:00 21.4 3 Nordeste 9 Noroeste 0 -- -- 70
2019-09-18 09:00:00 18.6 4 Noroeste 15 Noroeste 0 -- -- 81
2019-09-18 08:00:00 18 7 Oeste 13 Oeste 0 -- -- 82
2019-09-18 07:00:00 18.7 3 Noroeste 13 Norte 0 -- -- 79
2019-09-18 06:00:00 19.1 7 Norte 26 Norte 0 -- -- 78
2019-09-18 05:00:00 20.1 10 Norte 32 Noroeste 0 -- -- 77
2019-09-18 04:00:00 21.4 12 Norte 27 Norte 0 -- -- 65
2019-09-18 03:00:00 21.4 7 Norte 24 Oeste 0 -- -- 61
2019-09-18 02:00:00 21.8 11 Oeste 27 Oeste 0 -- -- 62
2019-09-18 01:00:00 23.1 10 Oeste 22 Sudoeste 0 -- -- 54
2019-09-18 00:00:00 22.8 6 Oeste 13 Oeste 0 -- -- 68
2019-09-17 23:00:00 23.1 5 Oeste 8 Sudoeste 0 -- -- 61
2019-09-17 22:00:00 24.3 6 Oeste 12 Oeste 0 -- -- 55
2019-09-17 21:00:00 25.7 2 Norte 5 Noroeste 0 -- -- 48
2019-09-15 18:00:00 21.2 4 Nordeste 15 Nordeste 0 -- -- 72
2019-09-15 17:00:00 21.4 7 Norte 14 Norte 0 -- -- 71
2019-09-15 16:00:00 19.5 3 Norte 18 Sudoeste 5 -- -- 84
2019-09-15 15:00:00 24.2 5 Sudoeste 16 Sur 0 -- -- 53
2019-09-15 14:00:00 24.9 8 Sur 17 Sudeste 0 -- -- 52
2019-09-15 13:00:00 24.5 8 Sudeste 16 Sudeste 0 -- -- 48
2019-09-15 12:00:00 22.9 4 Nordeste 9 Norte 0 -- -- 62
2019-09-15 11:00:00 21.2 6 Nordeste 10 Norte 0 -- -- 78
2019-09-15 10:00:00 18.7 5 Norte 7 Nordeste 0 -- -- 89
2019-09-15 09:00:00 17.4 0 Calma 9 Sudoeste 0 -- -- 94
2019-09-15 08:00:00 16.8 3 Oeste 4 Oeste 0 -- -- 95
2019-09-15 07:00:00 16.8 2 Noroeste 8 Sudoeste 0.2 -- -- 95
2019-09-15 06:00:00 16.8 4 Noroeste 22 Sudoeste 6 -- -- 92
2019-09-15 05:00:00 17.7 0 Calma 5 Sudoeste 0 -- -- 83
2019-09-15 04:00:00 18.4 3 Sudoeste 4 Noroeste 0 -- -- 83
2019-09-15 03:00:00 19.2 0 Calma 4 Noroeste 0 -- -- 80
2019-09-15 02:00:00 19 0 Calma 9 Nordeste 0 -- -- 84
2019-09-15 01:00:00 19.5 0 Calma 5 Sudeste 0 -- -- 81
2019-09-15 00:00:00 20 3 Sudeste 8 Sur 0.2 -- -- 77
2019-09-14 23:00:00 21.2 2 Sur 10 Sudeste 0.2 -- -- 72
2019-09-14 22:00:00 22.7 3 Sudeste 9 Sudeste 0 -- -- 54
2019-09-14 21:00:00 23.4 3 Sudeste 13 Sudeste 0 -- -- 54
2019-09-14 20:00:00 25 6 Sudeste 17 Sudeste 0 -- -- 49
2019-09-14 19:00:00 25.8 10 Sudeste 21 Sudeste 0 -- -- 46
2019-09-14 18:00:00 26.6 9 Sudeste 23 Sudeste 0 -- -- 44
2019-09-14 17:00:00 27.2 10 Sudeste 23 Sudeste 0 -- -- 47
2019-09-14 16:00:00 26.8 12 Sudeste 23 Sur 0 -- -- 46
2019-09-14 15:00:00 25.8 12 Sur 23 Sudeste 0 -- -- 49
2019-09-14 14:00:00 25.1 7 Sudeste 15 Sudeste 0 -- -- 53
2019-09-14 13:00:00 24 5 Este 14 Nordeste 0 -- -- 62
2019-09-14 12:00:00 21.9 5 Nordeste 10 Norte 0 -- -- 68
2019-09-14 11:00:00 20.1 4 Nordeste 8 Nordeste 0 -- -- 78
2019-09-14 10:00:00 17.7 4 Oeste 10 Oeste 0 -- -- 86
2019-09-14 09:00:00 15.5 5 Oeste 10 Oeste 0 -- -- 90
2019-09-14 08:00:00 15.2 3 Oeste 5 Sudoeste 0 -- -- 93
2019-09-14 07:00:00 16.1 2 Norte 8 Nordeste 0 -- -- 92
2019-09-14 06:00:00 16.6 2 Norte 6 Norte 0 -- -- 90
2019-09-14 05:00:00 17.3 3 Nordeste 4 Nordeste 0 -- -- 87
2019-09-14 04:00:00 17.8 3 Sur 8 Este 0 -- -- 85
2019-09-14 03:00:00 18 3 Sudeste 12 Sudeste 0 -- -- 84
2019-09-14 02:00:00 18.2 3 Sudeste 8 Sudeste 0.2 -- -- 79
2019-09-14 01:00:00 18.8 4 Sur 8 Sudeste 0 -- -- 72
2019-09-14 00:00:00 19.1 3 Noroeste 7 Sur 0 -- -- 68
2019-09-13 23:00:00 19.8 2 Sur 8 Nordeste 0 -- -- 66
2019-09-13 22:00:00 20.8 3 Norte 6 Norte 0 -- -- 62
2019-09-13 21:00:00 22 3 Oeste 8 Oeste 0 -- -- 58
2019-09-13 20:00:00 22.7 4 Sudoeste 8 Sudoeste 0 -- -- 55
2019-09-13 19:00:00 23.2 4 Sur 10 Sur 0 -- -- 54
2019-09-13 18:00:00 24 6 Sudeste 13 Sudeste 0 -- -- 52
2019-09-13 17:00:00 22.8 8 Sur 24 Sudeste 0 -- -- 55
2019-09-13 16:00:00 22.9 12 Sudeste 32 Sur 0 -- -- 50
2019-09-13 15:00:00 24.7 12 Sudeste 33 Sudeste 0 -- -- 43
2019-09-13 14:00:00 26 5 Este 11 Este 0 -- -- 45
2019-09-13 13:00:00 24.1 5 Nordeste 10 Oeste 0 -- -- 51
2019-09-13 12:00:00 23 7 Oeste 15 Noroeste 0 -- -- 52
2019-09-13 11:00:00 21 6 Norte 20 Norte 0 -- -- 61
2019-09-13 10:00:00 18.3 4 Oeste 11 Noroeste 0 -- -- 72
2019-09-13 09:00:00 16.4 6 Oeste 13 Oeste 0 -- -- 78
2019-09-13 08:00:00 16.1 2 Oeste 9 Noroeste 0 -- -- 79
2019-09-13 07:00:00 16.1 4 Noroeste 10 Oeste 0 -- -- 75
2019-09-13 06:00:00 17.2 4 Oeste 15 Oeste 0 -- -- 75
2019-09-13 05:00:00 17.1 5 Noroeste 10 Oeste 0 -- -- 72
2019-09-13 04:00:00 18.6 5 Oeste 17 Noroeste 0 -- -- 65
2019-09-13 03:00:00 19.2 3 Noroeste 8 Oeste 0 -- -- 64
2019-09-13 02:00:00 20.3 4 Noroeste 14 Norte 0 -- -- 60
2019-09-13 01:00:00 20.5 4 Noroeste 17 Noroeste 0 -- -- 60
2019-09-13 00:00:00 21.3 6 Oeste 18 Oeste 0 -- -- 56
2019-09-12 23:00:00 22.5 6 Oeste 13 Noroeste 0 -- -- 53
2019-09-12 22:00:00 23.2 2 Noroeste 9 Norte 0 -- -- 46
2019-09-12 21:00:00 24.5 3 Oeste 5 Sudoeste 0 -- -- 43
2019-09-12 20:00:00 27.3 3 Oeste 9 Sudoeste 0 -- -- 38
2019-09-12 19:00:00 28.6 4 Sudoeste 12 Sudoeste 0 -- -- 35
2019-09-12 18:00:00 28.6 3 Sudoeste 10 Norte 0 -- -- 35
2019-09-12 17:00:00 28 5 Nordeste 12 Nordeste 0 -- -- 37
2019-09-12 16:00:00 27.5 5 Sur 13 Sur 0 -- -- 39
2019-09-12 15:00:00 26.2 4 Sur 16 Norte 0 -- -- 42
2019-09-12 14:00:00 24.4 6 Nordeste 14 Nordeste 0 -- -- 45
2019-09-12 13:00:00 23.3 5 Norte 16 Norte 0 -- -- 46
2019-09-12 12:00:00 21.2 9 Norte 26 Norte 0 -- -- 51
2019-09-12 11:00:00 19.5 8 Noroeste 24 Noroeste 0 -- -- 57
2019-09-12 10:00:00 17.4 8 Noroeste 26 Noroeste 0 -- -- 65
2019-09-12 09:00:00 14.5 5 Noroeste 15 Noroeste 0 -- -- 75
2019-09-12 08:00:00 13.4 5 Oeste 9 Oeste 0 -- -- 77
2019-09-12 07:00:00 14.5 4 Norte 16 Noroeste 0 -- -- 73
2019-09-12 06:00:00 14.7 4 Noroeste 18 Noroeste 0 -- -- 71
2019-09-12 05:00:00 15.4 7 Noroeste 17 Oeste 0 -- -- 68
2019-09-12 04:00:00 15.6 6 Oeste 21 Noroeste 0 -- -- 68
2019-09-12 03:00:00 16.3 10 Noroeste 30 Noroeste 0 -- -- 65
2019-09-12 02:00:00 16.4 8 Noroeste 24 Noroeste 0 -- -- 65
2019-09-12 01:00:00 16.7 9 Noroeste 31 Noroeste 0 -- -- 62
2019-09-12 00:00:00 17.3 10 Noroeste 31 Noroeste 0 -- -- 59
2019-09-11 23:00:00 17.8 11 Noroeste 34 Noroeste 0 -- -- 56
2019-09-11 22:00:00 18.5 10 Noroeste 34 Noroeste 0 -- -- 56
2019-09-11 21:00:00 19.7 13 Norte 30 Noroeste 0 -- -- 50
2019-09-11 20:00:00 21.2 13 Norte 44 Norte 0 -- -- 45
2019-09-11 19:00:00 22.7 18 Norte 50 Noroeste 0 -- -- 41
2019-09-11 18:00:00 23.5 22 Norte 44 Norte 0 -- -- 38
2019-09-11 17:00:00 24.1 19 Norte 46 Norte 0 -- -- 36
2019-09-11 16:00:00 24.2 17 Norte 45 Norte 0 -- -- 36
2019-09-11 15:00:00 24.1 19 Noroeste 46 Norte 0 -- -- 35
2019-09-11 14:00:00 23.9 18 Norte 45 Norte 0 -- -- 35
2019-09-11 13:00:00 23.3 20 Norte 60 Noroeste 0 -- -- 35
2019-09-11 12:00:00 21.9 17 Noroeste 48 Norte 0 -- -- 39
2019-09-11 11:00:00 20.7 18 Norte 50 Noroeste 0 -- -- 42
2019-09-11 10:00:00 19.2 14 Noroeste 44 Noroeste 0 -- -- 48
2019-09-11 09:00:00 17 14 Noroeste 35 Noroeste 0 -- -- 61
2019-09-11 08:00:00 15.9 14 Noroeste 35 Noroeste 0 -- -- 68
2019-09-11 07:00:00 15.6 12 Norte 38 Noroeste 0 -- -- 71
2019-09-11 06:00:00 15.5 12 Noroeste 36 Noroeste 0 -- -- 70
2019-09-11 05:00:00 15.3 14 Noroeste 39 Noroeste 0 -- -- 70
2019-09-11 04:00:00 15.5 12 Noroeste 41 Norte 0 -- -- 68
2019-09-11 03:00:00 15.6 14 Noroeste 48 Norte 0 -- -- 66
2019-09-11 02:00:00 15.4 23 Norte 54 Norte 0 -- -- 67
2019-09-11 01:00:00 15.7 21 Norte 55 Norte 0 -- -- 64
2019-09-11 00:00:00 15.5 17 Norte 44 Oeste 0 -- -- 62
2019-09-10 23:00:00 15.7 15 Noroeste 40 Noroeste 0 -- -- 61
2019-09-10 22:00:00 16 17 Norte 43 Norte 0 -- -- 62
2019-09-10 21:00:00 16.6 18 Norte 43 Noroeste 0 -- -- 61
2019-09-10 20:00:00 17.3 20 Norte 51 Norte 0 -- -- 56
2019-09-10 19:00:00 16.9 15 Norte 54 Norte 0 -- -- 61
2019-09-10 18:00:00 18.2 18 Norte 41 Norte 0 -- -- 59
2019-09-10 17:00:00 16.9 17 Noroeste 46 Noroeste 0.8 -- -- 68
2019-09-10 16:00:00 19.8 15 Norte 47 Noroeste 0 -- -- 49
2019-09-10 15:00:00 18.4 14 Norte 42 Oeste 0 -- -- 51
2019-09-10 14:00:00 18.1 16 Noroeste 44 Oeste 0 -- -- 51
2019-09-10 13:00:00 17.9 16 Norte 44 Norte 0 -- -- 52
2019-09-10 12:00:00 16.8 18 Noroeste 42 Noroeste 0 -- -- 53
2019-09-10 11:00:00 16.1 18 Noroeste 48 Noroeste 0 -- -- 54
2019-09-10 10:00:00 15.4 12 Noroeste 38 Noroeste 0 -- -- 56
2019-09-10 09:00:00 14 10 Noroeste 31 Noroeste 0 -- -- 65
2019-09-10 08:00:00 13.4 10 Noroeste 31 Noroeste 0 -- -- 67
2019-09-10 07:00:00 14.1 10 Noroeste 34 Noroeste 0 -- -- 65
2019-09-10 06:00:00 13.8 12 Noroeste 38 Noroeste 0 -- -- 72
2019-09-10 05:00:00 13.5 10 Noroeste 39 Norte 0.4 -- -- 79
2019-09-10 04:00:00 17.1 13 Norte 34 Noroeste 0 -- -- 63
2019-09-10 03:00:00 17.5 9 Noroeste 27 Noroeste 0 -- -- 60
2019-09-10 02:00:00 17.2 6 Norte 19 Noroeste 0 -- -- 61
2019-09-10 01:00:00 17.2 8 Norte 23 Noroeste 0 -- -- 60
2019-09-10 00:00:00 17.5 9 Norte 25 Noroeste 0 -- -- 58
2019-09-09 23:00:00 18.2 10 Norte 31 Norte 0 -- -- 55
2019-09-09 22:00:00 18.9 15 Norte 37 Noroeste 0 -- -- 54
2019-09-09 21:00:00 20.2 15 Norte 31 Norte 0 -- -- 53
2019-09-09 20:00:00 23.7 5 Noroeste 14 Noroeste 0 -- -- 37
2019-09-09 19:00:00 24.4 6 Noroeste 22 Norte 0 -- -- 37
2019-09-09 18:00:00 24.7 5 Norte 15 Noroeste 0 -- -- 38
2019-09-09 17:00:00 25.3 4 Norte 12 Nordeste 0 -- -- 36
2019-09-09 16:00:00 24.2 4 Norte 12 Nordeste 0 -- -- 38
2019-09-09 15:00:00 22.8 7 Nordeste 12 Nordeste 0 -- -- 38
2019-09-09 14:00:00 21 3 Sudeste 12 Norte 0 -- -- 41
2019-09-09 13:00:00 20 6 Nordeste 12 Nordeste 0 -- -- 46
2019-09-09 12:00:00 18.3 6 Nordeste 13 Nordeste 0 -- -- 57
2019-09-09 11:00:00 16.8 4 Norte 9 Noroeste 0 -- -- 60
2019-09-09 10:00:00 14.4 4 Nordeste 8 Nordeste 0 -- -- 69
2019-09-09 09:00:00 11.4 4 Sudoeste 7 Sudoeste 0 -- -- 75
2019-09-09 08:00:00 10.1 2 Noroeste 6 Oeste 0 -- -- 80
2019-09-09 07:00:00 10.9 2 Noroeste 5 Noroeste 0 -- -- 79
2019-09-09 06:00:00 11.7 2 Oeste 11 Noroeste 0 -- -- 75
2019-09-09 05:00:00 12.2 5 Noroeste 13 Noroeste 0 -- -- 73
2019-09-09 04:00:00 13.3 5 Noroeste 14 Noroeste 0 -- -- 68
2019-09-09 03:00:00 13.9 4 Noroeste 21 Noroeste 0 -- -- 67
2019-09-09 02:00:00 14.8 7 Noroeste 19 Oeste 0 -- -- 63
2019-09-09 01:00:00 15.8 8 Noroeste 26 Noroeste 0 -- -- 57
2019-09-09 00:00:00 16.4 7 Noroeste 21 Noroeste 0 -- -- 55
2019-09-08 23:00:00 17.4 10 Norte 26 Noroeste 0 -- -- 49
2019-09-08 22:00:00 18.1 13 Norte 30 Noroeste 0 -- -- 47
2019-09-08 21:00:00 19.6 15 Norte 35 Norte 0 -- -- 39
2019-09-08 20:00:00 21.6 17 Norte 33 Norte 0 -- -- 41
2019-09-08 19:00:00 23.2 17 Norte 34 Noroeste 0 -- -- 40
2019-09-08 18:00:00 24.3 17 Norte 36 Norte 0 -- -- 41
2019-09-08 17:00:00 24.5 12 Norte 35 Norte 0 -- -- 41
2019-09-08 16:00:00 24.3 12 Norte 34 Norte 0 -- -- 41
2019-09-08 15:00:00 23.4 15 Norte 34 Noroeste 0 -- -- 46
2019-09-08 14:00:00 22.6 15 Norte 33 Noroeste 0 -- -- 51
2019-09-08 13:00:00 21.3 13 Norte 32 Norte 0 -- -- 55
2019-09-08 12:00:00 20.3 12 Norte 30 Noroeste 0 -- -- 58
2019-09-08 11:00:00 19.4 14 Norte 33 Norte 0 -- -- 60
2019-09-08 10:00:00 18.2 9 Noroeste 21 Noroeste 0 -- -- 64
2019-09-08 09:00:00 15.3 8 Noroeste 21 Oeste 0 -- -- 71
2019-09-08 08:00:00 13.7 6 Noroeste 20 Norte 0 -- -- 76
2019-09-08 07:00:00 14.3 4 Oeste 23 Noroeste 0 -- -- 73
2019-09-08 06:00:00 14 9 Noroeste 20 Noroeste 0 -- -- 74
2019-09-08 05:00:00 14.8 6 Oeste 15 Oeste 0 -- -- 71
2019-09-08 04:00:00 14.7 7 Oeste 16 Noroeste 0 -- -- 71
2019-09-08 03:00:00 15.3 8 Oeste 19 Oeste 0 -- -- 69
2019-09-08 02:00:00 15.8 7 Noroeste 25 Norte 0 -- -- 66
2019-09-08 01:00:00 16.3 12 Noroeste 30 Noroeste 0 -- -- 61
2019-09-08 00:00:00 16.8 13 Noroeste 30 Noroeste 0 -- -- 62
2019-09-07 23:00:00 17.1 10 Noroeste 37 Norte 0 -- -- 63
2019-09-07 22:00:00 17.7 13 Norte 40 Noroeste 0 -- -- 60
2019-09-07 21:00:00 19.3 14 Norte 33 Norte 0 -- -- 51
2019-09-07 20:00:00 21 18 Norte 40 Norte 0 -- -- 46
2019-09-07 19:00:00 23.5 16 Norte 49 Norte 0 -- -- 40
2019-09-07 18:00:00 24.7 15 Norte 38 Norte 0 -- -- 31
2019-09-07 17:00:00 25.3 11 Norte 29 Noroeste 0 -- -- 30
2019-09-07 16:00:00 24.9 11 Norte 27 Noroeste 0 -- -- 30
2019-09-07 15:00:00 23.6 10 Noroeste 29 Norte 0 -- -- 38
2019-09-07 14:00:00 22.5 11 Noroeste 32 Oeste 0 -- -- 43
2019-09-07 13:00:00 20.7 12 Noroeste 32 Noroeste 0 -- -- 48
2019-09-07 12:00:00 19.4 11 Noroeste 34 Norte 0 -- -- 52
2019-09-07 11:00:00 18.2 11 Norte 35 Noroeste 0 -- -- 55
2019-09-07 10:00:00 16.7 13 Noroeste 32 Noroeste 0 -- -- 58
2019-09-07 09:00:00 14.8 9 Noroeste 23 Noroeste 0 -- -- 65
2019-09-07 08:00:00 13.9 9 Noroeste 24 Oeste 0 -- -- 67
2019-09-07 07:00:00 13.8 10 Noroeste 25 Noroeste 0 -- -- 68
2019-09-07 06:00:00 14 10 Noroeste 27 Oeste 0 -- -- 68
2019-09-07 05:00:00 14.2 10 Noroeste 28 Oeste 0 -- -- 67
2019-09-07 04:00:00 14.5 13 Noroeste 27 Noroeste 0 -- -- 65
2019-09-07 03:00:00 14.8 13 Noroeste 29 Oeste 0 -- -- 63
2019-09-07 02:00:00 15 13 Noroeste 33 Noroeste 0 -- -- 62
2019-09-07 01:00:00 15.3 16 Noroeste 33 Noroeste 0 -- -- 60
2019-09-07 00:00:00 15.4 15 Noroeste 38 Noroeste 0 -- -- 58
2019-09-06 23:00:00 16.2 13 Noroeste 37 Noroeste 0 -- -- 57
2019-09-06 22:00:00 16.7 14 Noroeste 36 Noroeste 0 -- -- 54
2019-09-06 21:00:00 17.5 17 Norte 38 Norte 0 -- -- 52
2019-09-06 20:00:00 19 14 Norte 40 Norte 0 -- -- 48
2019-09-06 19:00:00 20.4 18 Norte 50 Norte 0 -- -- 43
2019-09-06 18:00:00 21.1 23 Norte 48 Norte 0 -- -- 42
2019-09-06 17:00:00 22.2 19 Norte 42 Noroeste 0 -- -- 39
2019-09-06 16:00:00 22.5 19 Norte 42 Norte 0 -- -- 37
2019-09-06 15:00:00 22.1 21 Norte 41 Noroeste 0 -- -- 35
2019-09-06 14:00:00 21.6 17 Norte 39 Norte 0 -- -- 37
2019-09-06 13:00:00 20.9 17 Norte 43 Noroeste 0 -- -- 42
2019-09-06 12:00:00 20 18 Norte 41 Norte 0 -- -- 45
2019-09-06 11:00:00 18.5 13 Noroeste 40 Oeste 0 -- -- 53
2019-09-06 10:00:00 17.3 16 Noroeste 37 Noroeste 0 -- -- 57
2019-09-06 09:00:00 15.9 12 Noroeste 29 Oeste 0 -- -- 63
2019-09-06 08:00:00 14.5 10 Noroeste 28 Noroeste 0 -- -- 66
2019-09-06 07:00:00 14.3 10 Noroeste 26 Noroeste 0 -- -- 66
2019-09-06 06:00:00 14.5 11 Noroeste 26 Noroeste 0 -- -- 65
2019-09-06 05:00:00 14.5 11 Noroeste 34 Noroeste 0 -- -- 65
2019-09-06 04:00:00 14.5 12 Noroeste 29 Oeste 0 -- -- 66
2019-09-06 03:00:00 14.9 10 Noroeste 29 Noroeste 0 -- -- 67
2019-09-06 02:00:00 15.2 10 Noroeste 32 Noroeste 0 -- -- 63
2019-09-06 01:00:00 15.6 12 Noroeste 33 Noroeste 0 -- -- 62
2019-09-06 00:00:00 16 15 Noroeste 40 Norte 0 -- -- 59
2019-09-05 23:00:00 16.1 13 Noroeste 42 Noroeste 0 -- -- 58
2019-09-05 22:00:00 16.9 15 Norte 43 Noroeste 0 -- -- 58
2019-09-05 21:00:00 17.8 13 Norte 45 Noroeste 0 -- -- 55
2019-09-05 20:00:00 19.3 10 Norte 50 Noroeste 0 -- -- 50
2019-09-05 19:00:00 20.5 21 Norte 49 Noroeste 0 -- -- 47
2019-09-05 18:00:00 21.4 20 Norte 48 Norte 0 -- -- 43
2019-09-05 17:00:00 22 19 Norte 44 Norte 0 -- -- 44
2019-09-05 16:00:00 22.2 19 Norte 49 Norte 0 -- -- 41
2019-09-05 15:00:00 21.9 15 Noroeste 44 Norte 0 -- -- 46
2019-09-05 14:00:00 21.2 22 Norte 47 Norte 0 -- -- 49
2019-09-05 13:00:00 21 22 Norte 46 Norte 0 -- -- 46
2019-09-05 12:00:00 20.4 17 Norte 48 Noroeste 0 -- -- 49
2019-09-05 11:00:00 19.6 19 Norte 38 Noroeste 0 -- -- 51
2019-09-05 10:00:00 19 14 Norte 31 Norte 0 -- -- 61
2019-09-05 09:00:00 17 10 Norte 28 Norte 0 -- -- 70
2019-09-05 08:00:00 17 14 Norte 27 Norte 0 -- -- 72
2019-09-05 07:00:00 17.4 13 Norte 34 Norte 0 -- -- 70
2019-09-05 06:00:00 17.8 14 Noroeste 35 Noroeste 0 -- -- 66
2019-09-05 05:00:00 17.1 10 Noroeste 31 Noroeste 0 -- -- 67
2019-09-05 04:00:00 17 13 Noroeste 36 Noroeste 0 -- -- 68
2019-09-05 03:00:00 16.9 12 Noroeste 34 Norte 0 -- -- 68
2019-09-05 02:00:00 17 9 Noroeste 30 Noroeste 0 -- -- 68
2019-09-05 01:00:00 17.6 10 Noroeste 25 Noroeste 0 -- -- 66
2019-09-05 00:00:00 18.3 12 Noroeste 33 Noroeste 0 -- -- 63
2019-09-04 23:00:00 18.9 10 Noroeste 26 Oeste 0 -- -- 59
2019-09-04 22:00:00 19.7 11 Noroeste 34 Noroeste 0 -- -- 58
2019-09-04 21:00:00 20.8 14 Norte 42 Norte 0 -- -- 55
2019-09-04 20:00:00 22.7 17 Norte 45 Norte 0 -- -- 51
2019-09-04 19:00:00 24.7 21 Norte 43 Norte 0 -- -- 44
2019-09-04 18:00:00 26.6 18 Norte 42 Nordeste 0 -- -- 43
2019-09-04 17:00:00 28.2 17 Norte 36 Oeste 0 -- -- 39
2019-09-04 16:00:00 28.9 13 Noroeste 31 Norte 0 -- -- 35
2019-09-04 15:00:00 27.2 12 Noroeste 28 Norte 0 -- -- 37
2019-09-04 14:00:00 25.8 11 Norte 25 Noroeste 0 -- -- 39
2019-09-04 13:00:00 24.6 11 Noroeste 27 Noroeste 0 -- -- 41
2019-09-04 12:00:00 22.5 9 Norte 20 Norte 0 -- -- 48
2019-09-04 11:00:00 20.6 9 Norte 18 Noroeste 0 -- -- 53
2019-09-04 10:00:00 18.1 6 Noroeste 14 Oeste 0 -- -- 61
2019-09-04 09:00:00 15.5 4 Oeste 15 Noroeste 0 -- -- 71
2019-09-04 08:00:00 14.4 5 Noroeste 12 Oeste 0 -- -- 74
2019-09-04 07:00:00 14.7 5 Oeste 11 Norte 0 -- -- 73
2019-09-04 06:00:00 14.8 2 Noroeste 4 Oeste 0 -- -- 75
2019-09-04 05:00:00 15.1 0 Calma 4 Oeste 0 -- -- 74
2019-09-04 04:00:00 16.1 3 Oeste 8 Oeste 0 -- -- 71
2019-09-04 03:00:00 17 3 Oeste 13 Oeste 0 -- -- 70
2019-09-04 02:00:00 18.4 6 Oeste 13 Noroeste 0 -- -- 65
2019-09-04 01:00:00 19.6 4 Oeste 13 Oeste 0 -- -- 61
2019-09-04 00:00:00 20.4 5 Noroeste 18 Oeste 0 -- -- 57
2019-09-03 23:00:00 21.5 8 Oeste 20 Noroeste 0 -- -- 54
2019-09-03 22:00:00 23 8 Noroeste 20 Noroeste 0 -- -- 49
2019-09-03 21:00:00 25.4 6 Norte 19 Norte 0 -- -- 40
2019-09-03 20:00:00 28 8 Norte 16 Norte 0 -- -- 33
2019-09-03 19:00:00 29 6 Norte 18 Nordeste 0 -- -- 32
2019-09-03 18:00:00 28.9 9 Nordeste 18 Nordeste 0 -- -- 34
2019-09-03 17:00:00 28.6 9 Norte 21 Norte 0 -- -- 35
2019-09-03 16:00:00 28.3 7 Noroeste 18 Nordeste 0 -- -- 36
2019-09-03 15:00:00 26.7 9 Noroeste 22 Norte 0 -- -- 37
2019-09-03 14:00:00 25.2 8 Norte 20 Oeste 0 -- -- 40
2019-09-03 13:00:00 23.5 9 Norte 22 Norte 0 -- -- 42
2019-09-03 12:00:00 21.9 8 Norte 22 Noroeste 0 -- -- 46
2019-09-03 11:00:00 20.6 9 Norte 21 Norte 0 -- -- 50
2019-09-03 10:00:00 18.5 6 Noroeste 21 Noroeste 0 -- -- 58
2019-09-03 09:00:00 15.3 6 Norte 14 Noroeste 0 -- -- 67
2019-09-03 08:00:00 13.1 0 Calma 10 Oeste 0 -- -- 73
2019-09-03 07:00:00 14.4 4 Noroeste 18 Noroeste 0 -- -- 68
2019-09-03 06:00:00 15.2 6 Noroeste 17 Oeste 0 -- -- 65
2019-09-03 05:00:00 16 9 Noroeste 23 Noroeste 0 -- -- 61
2019-09-03 04:00:00 16.4 8 Noroeste 23 Noroeste 0 -- -- 60
2019-09-03 03:00:00 16.8 9 Noroeste 27 Noroeste 0 -- -- 60
2019-09-03 02:00:00 17 11 Noroeste 31 Oeste 0 -- -- 59
2019-09-03 01:00:00 17.2 12 Noroeste 30 Noroeste 0 -- -- 59
2019-09-03 00:00:00 17.5 10 Noroeste 30 Noroeste 0 -- -- 59
2019-09-02 23:00:00 18.1 10 Noroeste 24 Noroeste 0 -- -- 59
2019-09-02 22:00:00 18.9 8 Noroeste 32 Noroeste 0 -- -- 57
2019-09-02 21:00:00 19.8 16 Norte 37 Norte 0 -- -- 55
2019-09-02 20:00:00 21.8 17 Norte 36 Norte 0 -- -- 47
2019-09-02 19:00:00 23.3 17 Norte 40 Norte 0 -- -- 44
2019-09-02 18:00:00 24.2 15 Norte 44 Norte 0 -- -- 41
2019-09-02 17:00:00 24.4 19 Norte 36 Norte 0 -- -- 40
2019-09-02 16:00:00 24.4 14 Norte 43 Nordeste 0 -- -- 39
2019-09-02 15:00:00 23.8 15 Noroeste 36 Noroeste 0 -- -- 42
2019-09-02 14:00:00 22.6 17 Noroeste 41 Oeste 0 -- -- 43
2019-09-02 13:00:00 21.9 13 Noroeste 42 Noroeste 0 -- -- 44
2019-09-02 12:00:00 20.8 13 Noroeste 35 Noroeste 0 -- -- 46
2019-09-02 11:00:00 19.6 15 Noroeste 36 Noroeste 0 -- -- 49
2019-09-02 10:00:00 18.7 13 Noroeste 35 Noroeste 0 -- -- 53
2019-09-02 09:00:00 17.3 11 Noroeste 28 Noroeste 0 -- -- 62
2019-09-02 08:00:00 16.6 7 Noroeste 19 Norte 0 -- -- 66
2019-09-02 07:00:00 16.2 7 Noroeste 20 Noroeste 0 -- -- 69
2019-09-02 06:00:00 16.1 8 Noroeste 19 Noroeste 0 -- -- 72
2019-09-02 05:00:00 16.2 5 Noroeste 28 Norte 0 -- -- 74
2019-09-02 04:00:00 16.6 10 Norte 26 Norte 0 -- -- 73
2019-09-02 03:00:00 17.8 9 Noroeste 36 Noroeste 0 -- -- 70
2019-09-02 02:00:00 18.6 11 Norte 31 Norte 0 -- -- 73
2019-09-02 01:00:00 19.2 11 Noroeste 31 Noroeste 0 -- -- 71
2019-09-02 00:00:00 20.1 11 Norte 33 Norte 0 -- -- 67
2019-09-01 23:00:00 20.2 12 Noroeste 35 Norte 0 -- -- 67
2019-09-01 22:00:00 21.1 14 Norte 35 Noroeste 0 -- -- 64
2019-09-01 21:00:00 22.7 13 Norte 37 Norte 0 -- -- 56
2019-09-01 20:00:00 24.2 14 Norte 34 Norte 0 -- -- 52
2019-09-01 19:00:00 25.5 15 Norte 34 Norte 0 -- -- 49
2019-09-01 18:00:00 24.9 17 Norte 37 Norte 0 -- -- 52
2019-09-01 17:00:00 25.5 13 Norte 40 Norte 0 -- -- 51
2019-09-01 16:00:00 26.8 12 Noroeste 28 Noroeste 0 -- -- 49
2019-09-01 15:00:00 27.1 12 Norte 30 Noroeste 0 -- -- 49
2019-09-01 14:00:00 25.7 12 Norte 30 Norte 0 -- -- 54
2019-09-01 13:00:00 24.8 14 Norte 31 Norte 0 -- -- 53
2019-09-01 12:00:00 24.9 14 Norte 29 Noroeste 0 -- -- 53
2019-09-01 11:00:00 23.5 8 Noroeste 25 Nordeste 0 -- -- 59
2019-09-01 10:00:00 22.1 9 Noroeste 27 Norte 0 -- -- 62
2019-09-01 09:00:00 20.6 6 Noroeste 28 Noroeste 0 -- -- 70
2019-09-01 08:00:00 19.7 7 Noroeste 22 Noroeste 0 -- -- 71
2019-09-01 07:00:00 19.4 6 Noroeste 17 Oeste 0 -- -- 76
2019-09-01 06:00:00 19.9 7 Noroeste 19 Oeste 0 -- -- 76
2019-09-01 05:00:00 20.2 7 Noroeste 19 Oeste 0 -- -- 76
2019-09-01 04:00:00 20.5 9 Noroeste 24 Oeste 0 -- -- 75
2019-09-01 03:00:00 21.1 7 Noroeste 27 Norte 0 -- -- 75
2019-09-01 02:00:00 21.6 7 Noroeste 24 Noroeste 0 -- -- 73
2019-09-01 01:00:00 22.3 10 Norte 28 Norte 0 -- -- 70
2019-09-01 00:00:00 23.1 11 Norte 28 Nordeste 0 -- -- 67
2019-08-31 23:00:00 23.9 12 Noroeste 28 Noroeste 0 -- -- 66
2019-08-31 22:00:00 27.2 4 Oeste 11 Nordeste 0 -- -- 54
2019-08-31 21:00:00 28.2 5 Nordeste 13 Sudeste 0 -- -- 43
2019-08-31 20:00:00 29.5 6 Sudeste 13 Sur 0 -- -- 43
2019-08-31 19:00:00 30.4 4 Oeste 12 Sudoeste 0 -- -- 39
2019-08-31 18:00:00 31.2 8 Sur 25 Sur 0 -- -- 37
2019-08-31 17:00:00 33.1 3 Sudoeste 12 Sudeste 0 -- -- 35
2019-08-31 16:00:00 33.8 6 Sudeste 14 Sudeste 0 -- -- 35
2019-08-31 15:00:00 32.2 6 Sudeste 17 Este 0 -- -- 40
2019-08-31 14:00:00 30.5 8 Sudeste 19 Sudeste 0 -- -- 42
2019-08-31 13:00:00 28.7 9 Sudeste 22 Sudeste 0 -- -- 47
2019-08-31 12:00:00 27.2 10 Sudeste 20 Sudeste 0 -- -- 52
2019-08-31 11:00:00 25.6 9 Sudeste 14 Sur 0 -- -- 52
2019-08-31 10:00:00 23.7 3 Norte 8 Oeste 0 -- -- 60
2019-08-31 09:00:00 21.6 0 Calma 3 Norte 0 -- -- 67
2019-08-31 08:00:00 19.3 0 Calma 5 Oeste 0 -- -- 71
2019-08-31 07:00:00 19.9 0 Calma 3 Sudoeste 0 -- -- 68
2019-08-31 06:00:00 20.6 3 Oeste 6 Sudoeste 0 -- -- 64
2019-08-31 05:00:00 21.6 0 Calma 6 Sudeste 0 -- -- 65
2019-08-31 04:00:00 22.9 0 Calma 9 Nordeste 0 -- -- 62
2019-08-31 03:00:00 23.9 4 Norte 8 Nordeste 0 -- -- 57
2019-08-31 02:00:00 24.6 2 Nordeste 8 Norte 0 -- -- 53
2019-08-31 01:00:00 24.8 3 Noroeste 7 Oeste 0 -- -- 52
2019-08-31 00:00:00 26 3 Noroeste 5 Oeste 0 -- -- 48
2019-08-30 23:00:00 27.1 0 Calma 7 Oeste 0 -- -- 44
2019-08-30 22:00:00 28.8 6 Oeste 17 Sudoeste 0 -- -- 39
2019-08-30 21:00:00 30.8 2 Sudeste 9 Sur 0 -- -- 39
2019-08-30 20:00:00 33 4 Sur 13 Sudeste 0 -- -- 34
2019-08-30 19:00:00 33.7 8 Sudeste 14 Sudeste 0 -- -- 30
2019-08-30 18:00:00 33.6 7 Sudeste 18 Sudeste 0 -- -- 33
2019-08-30 17:00:00 33 13 Sudeste 22 Sudeste 0 -- -- 35
2019-08-30 16:00:00 32.3 9 Sudeste 19 Sudeste 0 -- -- 41
2019-08-30 15:00:00 30.9 13 Sudeste 24 Sur 0 -- -- 45
2019-08-30 14:00:00 29.4 11 Sudeste 22 Sudeste 0 -- -- 49
2019-08-30 13:00:00 27.5 5 Sudeste 15 Sudeste 0 -- -- 56
2019-08-30 12:00:00 26.2 3 Sudeste 10 Sur 0 -- -- 61
2019-08-30 11:00:00 24.8 4 Nordeste 10 Nordeste 0 -- -- 70
2019-08-30 10:00:00 22.9 4 Norte 12 Norte 0 -- -- 75
2019-08-30 09:00:00 20.9 3 Noroeste 9 Norte 0 -- -- 81
2019-08-30 08:00:00 20.1 4 Oeste 8 Oeste 0 -- -- 83
2019-08-30 07:00:00 20.7 3 Norte 14 Noroeste 0 -- -- 82
2019-08-30 06:00:00 21.1 3 Norte 10 Nordeste 0 -- -- 81
2019-08-30 05:00:00 21.8 4 Noroeste 22 Noroeste 0 -- -- 79
2019-08-30 04:00:00 22.2 5 Norte 16 Norte 0 -- -- 77
2019-08-30 03:00:00 23.1 6 Nordeste 22 Norte 0 -- -- 74
2019-08-30 02:00:00 23.7 5 Norte 12 Noroeste 0 -- -- 73
2019-08-30 01:00:00 24.4 5 Oeste 10 Oeste 0 -- -- 70
2019-08-30 00:00:00 25.4 2 Norte 6 Norte 0 -- -- 60
2019-08-29 23:00:00 26.3 0 Calma 11 Oeste 0 -- -- 57
2019-08-29 22:00:00 27.1 6 Oeste 16 Oeste 0 -- -- 54
2019-08-29 21:00:00 28.7 6 Oeste 10 Oeste 0 -- -- 54
2019-08-29 20:00:00 30.5 0 Calma 7 Sudoeste 0 -- -- 44
2019-08-29 19:00:00 31.3 4 Sudeste 6 Sudeste 0 -- -- 40
2019-08-29 18:00:00 30.8 3 Oeste 17 Sudeste 0 -- -- 44
2019-08-29 17:00:00 31.7 10 Sudeste 20 Sudeste 0 -- -- 41
2019-08-29 16:00:00 31.1 9 Sudeste 23 Sudeste 0 -- -- 44
2019-08-29 15:00:00 30.3 9 Sudeste 23 Sudeste 0 -- -- 48
2019-08-29 14:00:00 28.8 9 Sudeste 19 Sudeste 0 -- -- 49
2019-08-29 13:00:00 27.4 4 Sudeste 10 Este 0 -- -- 56
2019-08-29 12:00:00 25.5 4 Nordeste 10 Nordeste 0 -- -- 64
2019-08-29 11:00:00 23.7 7 Nordeste 14 Norte 0 -- -- 71
2019-08-29 10:00:00 22.5 4 Nordeste 10 Norte 0 -- -- 77
2019-08-29 09:00:00 20.2 3 Oeste 8 Oeste 0 -- -- 82
2019-08-29 08:00:00 19.4 5 Oeste 8 Sudoeste 0 -- -- 87
2019-08-29 07:00:00 20.2 3 Noroeste 9 Oeste 0 -- -- 83
2019-08-29 06:00:00 20.8 4 Noroeste 12 Noroeste 0 -- -- 81
2019-08-29 05:00:00 21.4 4 Norte 15 Norte 0 -- -- 79
2019-08-29 04:00:00 22.1 5 Norte 14 Noroeste 0 -- -- 75
2019-08-29 03:00:00 22.1 3 Noroeste 21 Noroeste 0 -- -- 76
2019-08-29 02:00:00 22.7 8 Norte 25 Noroeste 0 -- -- 75
2019-08-29 01:00:00 23.4 9 Noroeste 20 Noroeste 0 -- -- 75
2019-08-29 00:00:00 23.9 5 Oeste 14 Oeste 0 -- -- 62
2019-08-28 23:00:00 24.3 4 Nordeste 13 Nordeste 0 -- -- 61
2019-08-28 22:00:00 26.2 4 Oeste 6 Oeste 0 -- -- 50
2019-08-28 21:00:00 28.1 4 Sudoeste 6 Oeste 0 -- -- 43
2019-08-28 20:00:00 31 3 Noroeste 12 Norte 0 -- -- 37
2019-08-28 19:00:00 31.1 6 Nordeste 13 Nordeste 0 -- -- 35
2019-08-28 18:00:00 31 8 Nordeste 20 Nordeste 0 -- -- 35
2019-08-28 17:00:00 30.8 8 Nordeste 16 Nordeste 0 -- -- 36
2019-08-28 16:00:00 29.7 4 Este 13 Nordeste 0 -- -- 44
2019-08-28 15:00:00 28.9 6 Sudeste 14 Sudeste 0 -- -- 50
2019-08-28 14:00:00 27.4 5 Sudeste 11 Sudeste 0 -- -- 59
2019-08-28 13:00:00 25.9 5 Nordeste 9 Nordeste 0 -- -- 62
2019-08-28 12:00:00 24.4 4 Nordeste 10 Nordeste 0 -- -- 68
2019-08-28 11:00:00 23.2 5 Noroeste 10 Oeste 0 -- -- 74
2019-08-28 10:00:00 21.2 4 Norte 9 Norte 0 -- -- 80
2019-08-28 09:00:00 18.8 2 Noroeste 7 Oeste 0 -- -- 86
2019-08-28 08:00:00 17 2 Noroeste 7 Oeste 0 -- -- 89
2019-08-28 07:00:00 17.3 0 Calma 4 Oeste 0 -- -- 88
2019-08-28 06:00:00 17.7 3 Oeste 7 Oeste 0 -- -- 86
2019-08-28 05:00:00 18 3 Oeste 9 Oeste 0 -- -- 82
2019-08-28 04:00:00 18.9 4 Oeste 9 Oeste 0 -- -- 80
2019-08-28 03:00:00 19.9 2 Oeste 5 Noroeste 0 -- -- 83
2019-08-28 02:00:00 20.7 2 Oeste 9 Norte 0 -- -- 80
2019-08-28 01:00:00 21.1 3 Noroeste 8 Sudoeste 0 -- -- 78
2019-08-28 00:00:00 22.2 4 Sur 10 Sudeste 0 -- -- 73
2019-08-27 23:00:00 23.3 7 Sur 17 Este 0 -- -- 66
2019-08-27 22:00:00 24 2 Oeste 4 Noroeste 0 -- -- 60
2019-08-27 21:00:00 25.7 2 Sudoeste 6 Sudoeste 0 -- -- 54
2019-08-27 20:00:00 27.6 3 Sur 16 Sur 0 -- -- 45
2019-08-27 19:00:00 27.8 2 Nordeste 13 Sur 0 -- -- 44
2019-08-27 18:00:00 27.8 6 Este 18 Este 0 -- -- 44
2019-08-27 17:00:00 27.9 5 Sudeste 12 Sur 0 -- -- 45
2019-08-27 16:00:00 27.3 6 Sudeste 14 Sudeste 0 -- -- 50
2019-08-27 15:00:00 26.7 5 Sudoeste 12 Sudoeste 0 -- -- 54
2019-08-27 14:00:00 24.8 4 Sur 15 Norte 0 -- -- 62
2019-08-27 13:00:00 23 6 Nordeste 14 Nordeste 0 -- -- 72
2019-08-27 12:00:00 22.5 6 Nordeste 15 Norte 0 -- -- 74
2019-08-27 11:00:00 20.7 6 Norte 12 Norte 0 -- -- 84
2019-08-27 10:00:00 18.8 0 Calma 4 Oeste 0 -- -- 90
2019-08-27 09:00:00 18 2 Oeste 9 Oeste 0 -- -- 94
2019-08-27 08:00:00 17.6 3 Oeste 8 Nordeste 0 -- -- 94
2019-08-27 07:00:00 17.9 4 Nordeste 8 Este 0 -- -- 92
2019-08-27 06:00:00 17.9 2 Nordeste 8 Nordeste 0 -- -- 92
2019-08-27 05:00:00 17.9 4 Nordeste 8 Nordeste 0 -- -- 91
2019-08-27 04:00:00 17.9 4 Norte 8 Norte 0 -- -- 92
2019-08-27 03:00:00 17.9 4 Oeste 10 Norte 0 -- -- 93
2019-08-27 02:00:00 17.8 6 Noroeste 18 Noroeste 0.4 -- -- 92
2019-08-27 01:00:00 17.5 7 Oeste 23 Norte 1.6 -- -- 93
2019-08-27 00:00:00 17.6 13 Norte 33 Nordeste 18.8 -- -- 92
2019-08-26 23:00:00 21.9 13 Norte 27 Norte 0.2 -- -- 70
2019-08-26 22:00:00 25.1 6 Nordeste 13 Norte 0 -- -- 59
2019-08-26 21:00:00 27.6 4 Sudoeste 15 Sudeste 0 -- -- 51
2019-08-26 20:00:00 28.6 8 Este 24 Este 0 -- -- 45
2019-08-26 19:00:00 29.2 8 Sudeste 28 Sudeste 0 -- -- 44
2019-08-26 18:00:00 30 11 Sudeste 27 Sudeste 0 -- -- 43
2019-08-26 17:00:00 29.9 10 Sudeste 21 Sur 0 -- -- 42
2019-08-26 16:00:00 28.3 15 Sudeste 33 Sudeste 0 -- -- 46
2019-08-26 15:00:00 27.2 16 Sudeste 29 Este 0 -- -- 50
2019-08-26 14:00:00 26.7 15 Sudeste 28 Sur 0 -- -- 50
2019-08-26 13:00:00 26.2 12 Sudeste 25 Sur 0 -- -- 54
2019-08-26 12:00:00 25.1 12 Sudeste 24 Sudeste 0 -- -- 57
2019-08-26 11:00:00 22.7 7 Sudeste 21 Sudeste 0 -- -- 64
2019-08-26 10:00:00 20.8 9 Sudeste 14 Sudeste 0 -- -- 69
2019-08-26 09:00:00 19.3 5 Sudeste 11 Sur 0 -- -- 72
2019-08-26 08:00:00 18.3 0 Calma 8 Oeste 0 -- -- 70
2019-08-26 07:00:00 19.1 3 Sudoeste 4 Sudoeste 0 -- -- 68
2019-08-26 06:00:00 19.8 0 Calma 6 Sudeste 0 -- -- 65
2019-08-26 05:00:00 20.4 0 Calma 5 Sudoeste 0 -- -- 62
2019-08-26 04:00:00 21.3 3 Oeste 7 Oeste 0 -- -- 60
2019-08-26 03:00:00 22.1 3 Sudoeste 8 Oeste 0 -- -- 56
2019-08-26 02:00:00 23.3 0 Calma 11 Este 0 -- -- 52
2019-08-26 01:00:00 24.3 5 Este 20 Sudeste 0 -- -- 50
2019-08-26 00:00:00 26 10 Sudeste 23 Sudeste 0 -- -- 44
2019-08-25 23:00:00 26.9 10 Sudeste 18 Sudeste 0 -- -- 45
2019-08-25 22:00:00 28.1 8 Sudeste 13 Sudeste 0 -- -- 46
2019-08-25 21:00:00 29.8 6 Sudeste 14 Sur 0 -- -- 42
2019-08-25 20:00:00 32 8 Sudeste 22 Sudeste 0 -- -- 34
2019-08-25 19:00:00 32.7 15 Sudeste 27 Sudeste 0 -- -- 30
2019-08-25 18:00:00 33.1 14 Sudeste 25 Sur 0 -- -- 30
2019-08-25 17:00:00 32.9 14 Sudeste 26 Sudeste 0 -- -- 29
2019-08-25 16:00:00 32.3 15 Sudeste 27 Sudeste 0 -- -- 30
2019-08-25 15:00:00 31.2 13 Sudeste 27 Sur 0 -- -- 37
2019-08-25 14:00:00 29.8 12 Sudeste 23 Sudeste 0 -- -- 42
2019-08-25 13:00:00 28.3 10 Sudeste 22 Sudeste 0 -- -- 47
2019-08-25 12:00:00 26 12 Sudeste 24 Sudeste 0 -- -- 56
2019-08-25 11:00:00 24.5 10 Sudeste 17 Sur 0 -- -- 59
2019-08-25 10:00:00 23.3 4 Sudeste 10 Sudeste 0 -- -- 59
2019-08-25 09:00:00 20 0 Calma 10 Oeste 0 -- -- 60
2019-08-25 08:00:00 17.9 3 Oeste 7 Oeste 0 -- -- 63
2019-08-25 07:00:00 18.2 0 Calma 2 Norte 0 -- -- 67
2019-08-25 06:00:00 18.6 0 Calma 3 Noroeste 0 -- -- 63
2019-08-25 05:00:00 19.1 0 Calma 3 Oeste 0 -- -- 60
2019-08-25 04:00:00 20 0 Calma 4 Nordeste 0 -- -- 57
2019-08-25 03:00:00 20.6 0 Calma 3 Sudoeste 0 -- -- 52
2019-08-25 02:00:00 21.3 0 Calma 2 Noroeste 0 -- -- 49
2019-08-25 01:00:00 22.2 2 Noroeste 5 Sur 0 -- -- 45
2019-08-25 00:00:00 23.6 3 Oeste 6 Sudoeste 0 -- -- 40
2019-08-24 23:00:00 25.2 3 Sudoeste 7 Sudoeste 0 -- -- 38
2019-08-24 22:00:00 26.6 2 Sur 4 Sur 0 -- -- 40
2019-08-24 21:00:00 29.3 0 Calma 12 Sur 0 -- -- 35
2019-08-24 20:00:00 31.5 8 Sur 24 Sudeste 0 -- -- 32
2019-08-24 19:00:00 32.3 17 Sudeste 26 Sudeste 0 -- -- 30
2019-08-24 18:00:00 32.8 11 Sur 26 Sur 0 -- -- 29
2019-08-24 17:00:00 32.4 12 Sudeste 25 Sur 0 -- -- 30
2019-08-24 16:00:00 31.7 10 Sudeste 25 Sur 0 -- -- 37
2019-08-24 15:00:00 30.9 12 Sudeste 27 Sudeste 0 -- -- 41
2019-08-24 14:00:00 29.3 9 Sudeste 23 Sudeste 0 -- -- 46
2019-08-24 13:00:00 27.9 10 Sudeste 21 Este 0 -- -- 50
2019-08-24 12:00:00 25.5 9 Sudeste 21 Sur 0 -- -- 59
2019-08-24 11:00:00 24 10 Sudeste 21 Sudeste 0 -- -- 63
2019-08-24 10:00:00 22.6 3 Sur 6 Sudeste 0 -- -- 62
2019-08-24 09:00:00 19.5 0 Calma 3 Sudeste 0 -- -- 63
2019-08-24 08:00:00 17.1 3 Oeste 10 Oeste 0 -- -- 66
2019-08-24 07:00:00 17.3 3 Oeste 6 Oeste 0 -- -- 63
2019-08-24 06:00:00 17.8 4 Oeste 8 Oeste 0 -- -- 60
2019-08-24 05:00:00 18.6 2 Oeste 6 Noroeste 0 -- -- 62
2019-08-24 04:00:00 19.1 2 Noroeste 8 Oeste 0 -- -- 57
2019-08-24 03:00:00 19.9 2 Noroeste 6 Oeste 0 -- -- 59
2019-08-24 02:00:00 21 0 Calma 5 Nordeste 0 -- -- 59
2019-08-24 01:00:00 21.9 0 Calma 3 Sudeste 0 -- -- 51
2019-08-24 00:00:00 23 0 Calma 5 Oeste 0 -- -- 50
2019-08-23 23:00:00 24.4 3 Sudoeste 5 Sudoeste 0 -- -- 44
2019-08-23 22:00:00 26.6 4 Sur 8 Sudeste 0 -- -- 49
2019-08-23 21:00:00 28.5 4 Sudeste 16 Sudeste 0 -- -- 42
2019-08-23 20:00:00 30.6 9 Sudeste 19 Sudeste 0 -- -- 35
2019-08-23 19:00:00 31.3 12 Sudeste 23 Sudeste 0 -- -- 33
2019-08-23 18:00:00 31.4 13 Sudeste 23 Sudeste 0 -- -- 35
2019-08-23 17:00:00 30.8 12 Sudeste 20 Sudeste 0 -- -- 38
2019-08-23 16:00:00 30.1 12 Sudeste 25 Sudeste 0 -- -- 44
2019-08-23 15:00:00 29.2 13 Sudeste 25 Sudeste 0 -- -- 43
2019-08-23 14:00:00 27.6 13 Sudeste 27 Sudeste 0 -- -- 43
2019-08-23 13:00:00 26 10 Sudeste 19 Sudeste 0 -- -- 41
2019-08-23 12:00:00 24.1 8 Sudeste 14 Este 0 -- -- 47
2019-08-23 11:00:00 21.9 3 Este 8 Nordeste 0 -- -- 57
2019-08-23 10:00:00 19.1 5 Este 8 Este 0 -- -- 65
2019-08-23 09:00:00 16.4 0 Calma 5 Oeste 0 -- -- 69
2019-08-23 08:00:00 14.2 0 Calma 5 Oeste 0 -- -- 78
2019-08-23 07:00:00 14.5 0 Calma 4 Norte 0 -- -- 80
2019-08-23 06:00:00 15.2 2 Norte 5 Nordeste 0 -- -- 75
2019-08-23 05:00:00 15.6 3 Norte 13 Oeste 0 -- -- 72
2019-08-23 04:00:00 16.4 2 Noroeste 7 Noroeste 0 -- -- 69
2019-08-23 03:00:00 17.8 0 Calma 6 Oeste 0 -- -- 66
2019-08-23 02:00:00 19.9 4 Oeste 12 Noroeste 0 -- -- 58
2019-08-23 01:00:00 21.2 4 Norte 17 Norte 0 -- -- 55
2019-08-23 00:00:00 21.6 5 Oeste 15 Noroeste 0 -- -- 54
2019-08-22 23:00:00 23.1 5 Noroeste 18 Oeste 0 -- -- 52
2019-08-22 22:00:00 24.5 9 Oeste 16 Oeste 0 -- -- 50
2019-08-22 21:00:00 27.1 3 Noroeste 13 Norte 0 -- -- 31
2019-08-22 20:00:00 29.5 5 Norte 17 Norte 0 -- -- 25
2019-08-22 19:00:00 30.7 9 Norte 19 Norte 0 -- -- 20
2019-08-22 18:00:00 30.9 8 Norte 19 Nordeste 0 -- -- 20
2019-08-22 17:00:00 30.7 9 Nordeste 25 Norte 0 -- -- 26
2019-08-22 16:00:00 29.9 9 Norte 22 Norte 0 -- -- 28
2019-08-22 15:00:00 28.5 10 Norte 24 Norte 0 -- -- 30
2019-08-22 14:00:00 27.2 10 Norte 24 Norte 0 -- -- 35
2019-08-22 13:00:00 25.8 9 Norte 24 Noroeste 0 -- -- 40
2019-08-22 12:00:00 23.7 13 Norte 26 Oeste 0 -- -- 44
2019-08-22 11:00:00 22.7 9 Norte 29 Norte 0 -- -- 48
2019-08-22 10:00:00 20.5 8 Noroeste 18 Norte 0 -- -- 56
2019-08-22 09:00:00 17.3 8 Noroeste 17 Oeste 0 -- -- 71
2019-08-22 08:00:00 15.7 6 Noroeste 17 Noroeste 0 -- -- 77
2019-08-22 07:00:00 15.5 5 Noroeste 13 Oeste 0 -- -- 79
2019-08-22 06:00:00 16.2 5 Noroeste 15 Noroeste 0 -- -- 77
2019-08-22 05:00:00 17.5 7 Noroeste 16 Oeste 0 -- -- 72
2019-08-22 04:00:00 18.3 9 Oeste 21 Oeste 0 -- -- 67
2019-08-22 03:00:00 19.4 10 Noroeste 23 Noroeste 0 -- -- 64
2019-08-22 02:00:00 19.9 9 Noroeste 24 Oeste 0 -- -- 54
2019-08-22 01:00:00 20.5 8 Noroeste 26 Noroeste 0 -- -- 56
2019-08-22 00:00:00 21.1 9 Noroeste 29 Noroeste 0 -- -- 59
2019-08-21 23:00:00 22 12 Noroeste 33 Noroeste 0 -- -- 60
2019-08-21 22:00:00 23.6 10 Norte 30 Noroeste 0 -- -- 55
2019-08-21 21:00:00 25.3 11 Norte 28 Noroeste 0 -- -- 53
2019-08-21 20:00:00 27.9 9 Norte 18 Norte 0 -- -- 45
2019-08-21 19:00:00 28.4 4 Norte 17 Noroeste 0 -- -- 45
2019-08-21 18:00:00 28 7 Norte 15 Norte 0 -- -- 47
2019-08-21 17:00:00 26.8 8 Norte 17 Norte 0 -- -- 49
2019-08-21 16:00:00 26.6 6 Este 13 Sudeste 0 -- -- 50
2019-08-21 15:00:00 26.9 4 Nordeste 13 Nordeste 0 -- -- 49
2019-08-21 14:00:00 24.9 4 Nordeste 12 Este 0 -- -- 53
2019-08-21 13:00:00 23.4 4 Nordeste 10 Nordeste 0 -- -- 56
2019-08-21 12:00:00 21.5 7 Nordeste 12 Norte 0 -- -- 61
2019-08-21 11:00:00 20.1 6 Noroeste 15 Noroeste 0 -- -- 64
2019-08-21 10:00:00 18.6 4 Noroeste 14 Norte 0 -- -- 67
2019-08-21 09:00:00 17.4 4 Nordeste 6 Nordeste 0 -- -- 72
2019-08-21 08:00:00 16.4 2 Noroeste 9 Noroeste 0 -- -- 75
2019-08-21 07:00:00 16.6 2 Noroeste 10 Oeste 0 -- -- 73
2019-08-21 06:00:00 17.2 4 Noroeste 9 Noroeste 0 -- -- 72
2019-08-21 05:00:00 16.8 3 Noroeste 9 Oeste 0 -- -- 73
2019-08-21 04:00:00 16.7 5 Oeste 12 Oeste 0 -- -- 75
2019-08-21 03:00:00 17.3 6 Oeste 13 Oeste 0 -- -- 73
2019-08-21 02:00:00 17.6 7 Oeste 18 Noroeste 0 -- -- 71
2019-08-21 01:00:00 18 9 Noroeste 19 Noroeste 0 -- -- 69
2019-08-21 00:00:00 18.2 7 Noroeste 19 Noroeste 0 -- -- 68
2019-08-20 23:00:00 18.8 9 Noroeste 25 Noroeste 0 -- -- 67
2019-08-20 22:00:00 19.5 8 Noroeste 22 Noroeste 0 -- -- 66
2019-08-20 21:00:00 20.9 7 Norte 32 Norte 0 -- -- 61
2019-08-20 20:00:00 22.8 16 Norte 36 Norte 0 -- -- 54
2019-08-20 19:00:00 24 15 Norte 34 Norte 0 -- -- 50
2019-08-20 18:00:00 25 19 Norte 35 Norte 0 -- -- 47
2019-08-20 17:00:00 25.6 14 Norte 32 Noroeste 0 -- -- 46
2019-08-20 16:00:00 25.6 13 Norte 32 Norte 0 -- -- 47
2019-08-20 15:00:00 24.9 9 Noroeste 31 Noroeste 0 -- -- 48
2019-08-20 14:00:00 23.6 9 Noroeste 26 Noroeste 0 -- -- 52
2019-08-20 13:00:00 21.9 12 Noroeste 32 Noroeste 0 -- -- 59
2019-08-20 12:00:00 21 10 Norte 34 Noroeste 0 -- -- 63
2019-08-20 11:00:00 19.7 10 Noroeste 36 Norte 0 -- -- 70
2019-08-20 10:00:00 17.4 6 Noroeste 25 Norte 0 -- -- 82
2019-08-20 09:00:00 16.4 8 Noroeste 26 Noroeste 0 -- -- 87
2019-08-20 08:00:00 16.1 6 Oeste 17 Noroeste 0.2 -- -- 90
2019-08-20 07:00:00 16.1 6 Noroeste 18 Oeste 0 -- -- 92
2019-08-20 06:00:00 16.1 6 Noroeste 13 Oeste 0.2 -- -- 95
2019-08-20 05:00:00 16.1 3 Sudoeste 9 Oeste 2.4 -- -- 95
2019-08-20 04:00:00 16 5 Oeste 20 Noroeste 2.8 -- -- 94
2019-08-20 03:00:00 16.1 7 Noroeste 21 Oeste 2 -- -- 92
2019-08-20 02:00:00 16.3 7 Norte 21 Oeste 2.4 -- -- 90
2019-08-20 01:00:00 16.9 6 Norte 22 Noroeste 1.4 -- -- 86
2019-08-20 00:00:00 18.2 6 Noroeste 19 Noroeste 0 -- -- 76